createdAt,value
2022-09-23T00:01:31.763Z,35.20
2022-09-23T00:04:11.900Z,32.30
2022-09-23T00:06:44.457Z,32.20
2022-09-23T00:09:19.392Z,30.50
2022-09-23T00:11:51.742Z,27.20
2022-09-23T00:14:21.927Z,29.80
2022-09-23T00:17:01.971Z,29.20
2022-09-23T00:19:31.754Z,26.10
2022-09-23T00:22:01.185Z,30.20
2022-09-23T00:24:36.748Z,27.80
2022-09-23T00:27:26.395Z,23.50
2022-09-23T00:30:04.339Z,26.40
2022-09-23T00:32:40.534Z,26.20
2022-09-23T00:35:15.742Z,24.60
2022-09-23T00:37:46.443Z,27.10
2022-09-23T00:40:21.372Z,26.00
2022-09-23T00:43:07.000Z,22.90
2022-09-23T00:45:48.892Z,24.00
2022-09-23T00:48:21.205Z,24.70
2022-09-23T00:50:57.701Z,25.70
2022-09-23T00:53:30.769Z,25.60
2022-09-23T00:56:14.447Z,22.90
2022-09-23T00:58:57.442Z,24.30
2022-09-23T01:01:27.763Z,24.90
2022-09-23T01:04:06.060Z,22.10
2022-09-23T01:06:44.490Z,30.40
2022-09-23T01:09:16.826Z,27.30
2022-09-23T01:12:20.802Z,27.20
2022-09-23T01:15:20.267Z,24.30
2022-09-23T01:18:35.773Z,23.20
2022-09-23T01:21:31.937Z,23.60
2022-09-23T01:24:47.927Z,23.90
2022-09-23T01:27:34.624Z,22.20
2022-09-23T01:30:37.596Z,22.30
2022-09-23T01:33:30.812Z,26.20
2022-09-23T01:36:37.286Z,28.50
2022-09-23T01:39:56.074Z,27.20
2022-09-23T01:42:42.004Z,23.80
2022-09-23T01:45:51.775Z,24.10
2022-09-23T01:48:50.028Z,24.80
2022-09-23T01:51:43.100Z,24.80
2022-09-23T01:54:39.043Z,24.00
2022-09-23T01:57:23.880Z,22.50
2022-09-23T02:02:59.615Z,21.10
2022-09-23T02:05:48.089Z,21.90
2022-09-23T02:08:32.322Z,23.40
2022-09-23T02:11:15.517Z,21.30
2022-09-23T02:14:03.766Z,23.20
2022-09-23T02:16:56.119Z,20.30
2022-09-23T02:20:16.063Z,25.30
2022-09-23T02:23:04.433Z,23.10
2022-09-23T02:26:09.068Z,21.80
2022-09-23T02:29:05.606Z,26.50
2022-09-23T02:31:54.711Z,23.80
2022-09-23T02:35:19.431Z,21.80
2022-09-23T02:38:30.749Z,17.80
2022-09-23T02:41:45.642Z,20.50
2022-09-23T02:44:23.106Z,22.50
2022-09-23T02:47:04.852Z,19.80
2022-09-23T02:49:36.723Z,21.90
2022-09-23T02:52:08.896Z,20.40
2022-09-23T02:54:44.175Z,20.40
2022-09-23T02:57:20.363Z,24.70
2022-09-23T02:59:59.616Z,22.40
2022-09-23T03:03:06.426Z,25.90
2022-09-23T03:05:56.043Z,24.60
2022-09-23T03:08:59.932Z,24.40
2022-09-23T03:11:32.885Z,26.50
2022-09-23T03:14:40.811Z,25.30
2022-09-23T03:17:26.081Z,23.60
2022-09-23T03:20:20.479Z,22.80
2022-09-23T03:23:00.972Z,25.80
2022-09-23T03:25:37.575Z,27.00
2022-09-23T03:28:13.670Z,21.60
2022-09-23T03:30:52.844Z,25.20
2022-09-23T03:33:28.985Z,25.00
2022-09-23T03:36:29.584Z,23.10
2022-09-23T03:39:19.867Z,30.00
2022-09-23T03:41:53.171Z,27.00
2022-09-23T03:44:23.794Z,25.00
2022-09-23T03:47:01.262Z,29.40
2022-09-23T03:49:44.904Z,27.50
2022-09-23T03:52:20.006Z,27.30
2022-09-23T03:54:58.968Z,29.80
2022-09-23T03:57:37.504Z,27.30
2022-09-23T04:00:13.857Z,29.40
2022-09-23T04:02:49.128Z,27.80
2022-09-23T04:05:22.293Z,32.10
2022-09-23T04:07:53.831Z,36.20
2022-09-23T04:10:28.466Z,29.20
2022-09-23T04:13:04.793Z,33.40
2022-09-23T04:15:43.214Z,35.00
2022-09-23T04:21:32.628Z,41.20
2022-09-23T04:24:14.325Z,36.90
2022-09-23T04:26:53.659Z,42.50
2022-09-23T04:29:41.029Z,38.60
2022-09-23T04:32:21.048Z,43.30
2022-09-23T04:34:55.523Z,37.80
2022-09-23T04:37:32.902Z,49.50
2022-09-23T04:40:11.432Z,46.70
2022-09-23T04:42:50.113Z,46.00
2022-09-23T04:45:30.750Z,41.70
2022-09-23T04:48:13.588Z,49.00
2022-09-23T04:51:28.834Z,46.20
2022-09-23T04:54:02.971Z,39.80
2022-09-23T04:56:37.734Z,36.60
2022-09-23T04:59:12.091Z,37.30
2022-09-23T05:01:44.423Z,34.90
2022-09-23T05:04:18.810Z,36.40
2022-09-23T05:07:03.275Z,39.60
2022-09-23T05:09:44.363Z,41.60
2022-09-23T05:12:26.086Z,40.80
2022-09-23T05:15:00.012Z,49.10
2022-09-23T05:17:31.867Z,39.20
2022-09-23T05:20:09.696Z,40.30
2022-09-23T05:22:51.680Z,43.10
2022-09-23T05:26:09.373Z,42.40
2022-09-23T05:28:58.739Z,39.90
2022-09-23T05:31:38.834Z,42.10
2022-09-23T05:36:41.632Z,43.80
2022-09-23T05:39:17.435Z,43.30
2022-09-23T05:44:48.699Z,45.50
2022-09-23T05:47:23.831Z,41.60
2022-09-23T05:50:05.276Z,39.40
2022-09-23T05:52:57.820Z,49.10
2022-09-23T05:55:46.641Z,39.00
2022-09-23T06:01:26.250Z,45.60
2022-09-23T06:04:06.405Z,43.40
2022-09-23T06:06:51.908Z,38.70
2022-09-23T06:09:36.803Z,42.50
2022-09-23T06:12:49.693Z,44.50
2022-09-23T06:15:40.051Z,43.00
2022-09-23T06:18:25.687Z,50.20
2022-09-23T06:21:09.608Z,43.80
2022-09-23T06:27:23.043Z,44.00
2022-09-23T06:30:07.121Z,48.40
2022-09-23T06:32:39.872Z,45.30
2022-09-23T06:35:25.616Z,53.20
2022-09-23T06:38:10.296Z,41.70
2022-09-23T06:40:50.698Z,40.10
2022-09-23T06:43:23.126Z,44.40
2022-09-23T06:46:11.360Z,72.80
2022-09-23T06:48:56.414Z,46.10
2022-09-23T06:51:31.156Z,45.70
2022-09-23T06:54:11.433Z,41.20
2022-09-23T06:57:00.358Z,43.00
2022-09-23T06:59:34.688Z,60.30
2022-09-23T07:02:16.098Z,45.20
2022-09-23T07:05:01.551Z,48.10
2022-09-23T07:07:41.819Z,42.90
2022-09-23T07:10:20.266Z,53.40
2022-09-23T07:12:53.730Z,43.50
2022-09-23T07:15:36.504Z,53.90
2022-09-23T07:18:10.717Z,50.20
2022-09-23T07:20:40.834Z,57.10
2022-09-23T07:23:21.015Z,46.30
2022-09-23T07:26:04.389Z,50.10
2022-09-23T07:28:35.515Z,59.30
2022-09-23T07:31:33.318Z,29.10
2022-09-23T07:34:14.159Z,31.30
2022-09-23T07:36:55.694Z,25.20
2022-09-23T07:39:49.735Z,31.10
2022-09-23T07:42:33.079Z,31.20
2022-09-23T07:45:04.294Z,35.10
2022-09-23T07:47:45.833Z,35.80
2022-09-23T07:50:28.940Z,30.20
2022-09-23T07:53:15.884Z,28.40
2022-09-23T07:56:00.261Z,28.10
2022-09-23T07:59:22.828Z,29.70
2022-09-23T08:02:05.029Z,30.70
2022-09-23T08:05:07.803Z,28.70
2022-09-23T08:07:50.498Z,30.60
2022-09-23T08:10:33.204Z,24.70
2022-09-23T08:13:25.789Z,21.40
2022-09-23T08:16:06.626Z,23.90
2022-09-23T08:18:45.953Z,15.00
2022-09-23T08:21:36.141Z,16.70
2022-09-23T08:24:24.103Z,17.30
2022-09-23T08:27:02.422Z,17.50
2022-09-23T08:29:44.863Z,17.60
2022-09-23T08:32:24.721Z,16.80
2022-09-23T08:35:05.711Z,17.20
2022-09-23T08:37:48.888Z,16.10
2022-09-23T08:40:38.151Z,22.70
2022-09-23T08:43:47.054Z,18.10
2022-09-23T08:46:49.724Z,18.90
2022-09-23T08:50:03.761Z,15.40
2022-09-23T08:53:05.298Z,14.70
2022-09-23T08:56:01.400Z,15.10
2022-09-23T08:59:04.031Z,14.90
2022-09-23T09:02:15.169Z,17.90
2022-09-23T09:05:21.104Z,9.80
2022-09-23T09:08:11.566Z,9.50
2022-09-23T09:10:51.983Z,11.00
2022-09-23T09:13:45.884Z,6.90
2022-09-23T09:17:02.135Z,7.10
2022-09-23T09:20:21.948Z,6.90
2022-09-23T09:23:19.269Z,6.20
2022-09-23T09:26:21.795Z,9.30
2022-09-23T09:32:41.030Z,6.40
2022-09-23T09:35:45.398Z,6.60
2022-09-23T09:38:40.475Z,5.90
2022-09-23T09:41:45.912Z,7.80
2022-09-23T09:45:07.596Z,11.40
2022-09-23T09:48:35.618Z,6.80
2022-09-23T09:51:39.406Z,5.70
2022-09-23T09:54:32.393Z,6.10
2022-09-23T09:58:06.254Z,6.80
2022-09-23T10:01:00.929Z,8.70
2022-09-23T10:03:59.527Z,7.10
2022-09-23T10:06:38.179Z,7.90
2022-09-23T10:09:19.533Z,4.60
2022-09-23T10:12:28.680Z,6.00
2022-09-23T10:15:45.723Z,6.50
2022-09-23T10:18:47.919Z,5.10
2022-09-23T10:21:37.809Z,10.90
2022-09-23T10:24:41.550Z,3.70
2022-09-23T10:27:29.126Z,4.70
2022-09-23T10:30:31.017Z,7.50
2022-09-23T10:33:06.737Z,7.40
2022-09-23T10:36:09.907Z,2.70
2022-09-23T10:39:21.007Z,3.60
2022-09-23T10:42:29.359Z,5.40
2022-09-23T10:45:58.395Z,5.00
2022-09-23T10:49:11.776Z,4.50
2022-09-23T10:52:52.683Z,7.00
2022-09-23T10:56:04.101Z,6.80
2022-09-23T10:59:50.357Z,4.90
2022-09-23T11:03:11.149Z,4.90
2022-09-23T11:06:39.082Z,3.10
2022-09-23T11:09:49.028Z,5.50
2022-09-23T11:12:54.197Z,6.50
2022-09-23T11:19:33.579Z,8.10
2022-09-23T11:22:11.109Z,6.20
2022-09-23T11:25:23.568Z,6.20
2022-09-23T11:28:34.741Z,6.20
2022-09-23T11:32:01.107Z,4.00
2022-09-23T11:35:15.275Z,7.10
2022-09-23T11:38:02.556Z,11.00
2022-09-23T11:45:32.464Z,5.70
2022-09-23T11:48:42.948Z,4.20
2022-09-23T11:51:52.873Z,6.90
2022-09-23T11:54:44.593Z,4.50
2022-09-23T11:57:49.136Z,3.80
2022-09-23T12:00:40.556Z,6.30
2022-09-23T12:03:39.897Z,3.30
2022-09-23T12:06:34.801Z,4.10
2022-09-23T12:09:40.924Z,2.50
2022-09-23T12:12:43.379Z,4.60
2022-09-23T12:16:09.809Z,4.70
2022-09-23T12:19:21.279Z,4.30
2022-09-23T12:22:32.975Z,7.50
2022-09-23T12:29:15.825Z,2.90
2022-09-23T12:32:55.370Z,4.50
2022-09-23T12:36:49.716Z,8.50
2022-09-23T12:40:44.342Z,7.20
2022-09-23T12:44:54.231Z,4.40
2022-09-23T12:49:20.943Z,3.40
2022-09-23T12:52:37.761Z,3.20
2022-09-23T12:55:44.237Z,4.30
2022-09-23T12:59:06.269Z,5.00
2022-09-23T13:01:43.482Z,12.80
2022-09-23T13:05:44.161Z,3.70
2022-09-23T13:08:28.293Z,7.60
2022-09-23T13:11:29.511Z,6.70
2022-09-23T13:14:08.414Z,3.50
2022-09-23T13:16:48.379Z,9.90
2022-09-23T13:19:33.200Z,3.10
2022-09-23T13:23:08.746Z,8.20
2022-09-23T13:26:31.820Z,3.00
2022-09-23T13:29:54.170Z,3.00
2022-09-23T13:32:39.407Z,4.60
2022-09-23T13:35:31.897Z,2.40
2022-09-23T13:38:52.000Z,5.60
2022-09-23T13:42:11.978Z,4.40
2022-09-23T13:45:05.230Z,2.30
2022-09-23T13:47:39.552Z,3.70
2022-09-23T13:50:34.999Z,3.00
2022-09-23T13:53:33.559Z,2.90
2022-09-23T13:56:44.461Z,3.30
2022-09-23T13:59:30.269Z,2.80
2022-09-23T14:02:17.905Z,5.00
2022-09-23T14:04:54.323Z,4.10
2022-09-23T14:07:30.869Z,2.90
2022-09-23T14:10:18.855Z,3.10
2022-09-23T14:17:18.539Z,1.90
2022-09-23T14:19:53.945Z,5.20
2022-09-23T14:22:48.390Z,2.50
2022-09-23T14:25:22.323Z,4.60
2022-09-23T14:28:39.371Z,2.50
2022-09-23T14:31:13.796Z,4.20
2022-09-23T14:34:00.758Z,5.00
2022-09-23T14:37:05.974Z,2.60
2022-09-23T14:39:43.596Z,1.90
2022-09-23T14:42:32.592Z,2.10
2022-09-23T14:45:05.883Z,2.10
2022-09-23T14:47:48.610Z,2.30
2022-09-23T14:50:52.253Z,2.80
2022-09-23T14:53:38.513Z,3.20
2022-09-23T14:56:27.890Z,4.90
2022-09-23T14:59:32.663Z,1.90
2022-09-23T15:02:59.586Z,3.00
2022-09-23T15:08:30.620Z,5.30
2022-09-23T15:11:09.899Z,3.60
2022-09-23T15:13:49.774Z,4.60
2022-09-23T15:16:35.087Z,7.50
2022-09-23T15:19:08.625Z,4.10
2022-09-23T15:21:55.226Z,4.40
2022-09-23T15:24:50.959Z,3.70
2022-09-23T15:27:45.124Z,5.00
2022-09-23T15:30:46.136Z,4.70
2022-09-23T15:33:51.786Z,6.50
2022-09-23T15:36:29.978Z,3.80
2022-09-23T15:39:35.489Z,3.50
2022-09-23T15:42:25.064Z,2.80
2022-09-23T15:45:04.406Z,2.10
2022-09-23T15:47:51.644Z,5.20
2022-09-23T15:50:25.180Z,4.50
2022-09-23T15:53:15.943Z,5.70
2022-09-23T15:55:54.704Z,6.80
2022-09-23T15:58:35.597Z,9.00
2022-09-23T16:01:37.051Z,6.10
2022-09-23T16:04:37.054Z,10.10
2022-09-23T16:07:23.080Z,9.90
2022-09-23T16:09:59.138Z,5.80
2022-09-23T16:12:50.674Z,5.50
2022-09-23T16:15:46.295Z,8.00
2022-09-23T16:18:19.700Z,7.60
2022-09-23T16:21:02.895Z,10.90
2022-09-23T16:23:51.961Z,14.10
2022-09-23T16:27:10.063Z,11.10
2022-09-23T16:29:50.017Z,12.90
2022-09-23T16:32:25.564Z,15.30
2022-09-23T16:35:02.637Z,19.90
2022-09-23T16:37:51.059Z,17.40
2022-09-23T16:40:25.943Z,27.30
2022-09-23T16:42:56.288Z,31.40
2022-09-23T16:45:28.062Z,30.80
2022-09-23T16:50:39.391Z,26.20
2022-09-23T16:53:20.061Z,26.00
2022-09-23T16:56:13.998Z,24.80
2022-09-23T16:58:48.713Z,21.90
2022-09-23T17:01:45.040Z,22.80
2022-09-23T17:04:20.736Z,55.00
2022-09-23T17:07:13.048Z,44.60
2022-09-23T17:09:53.037Z,26.80
2022-09-23T17:12:39.871Z,24.40
2022-09-23T17:15:11.511Z,26.50
2022-09-23T17:17:49.987Z,31.50
2022-09-23T17:20:43.431Z,34.50
2022-09-23T17:23:21.146Z,40.10
2022-09-23T17:26:22.883Z,42.10
2022-09-23T17:29:04.221Z,43.70
2022-09-23T17:31:41.750Z,52.10
2022-09-23T17:34:25.798Z,45.20
2022-09-23T17:37:11.186Z,48.40
2022-09-23T17:39:55.730Z,53.40
2022-09-23T17:43:11.447Z,60.10
2022-09-23T17:45:44.335Z,57.50
2022-09-23T17:48:42.185Z,76.70
2022-09-23T17:51:28.578Z,79.10
2022-09-23T17:54:21.277Z,80.30
2022-09-23T17:57:19.324Z,89.40
2022-09-23T18:00:07.283Z,80.60
2022-09-23T18:03:15.683Z,76.20
2022-09-23T18:05:58.893Z,77.10
2022-09-23T18:09:15.352Z,71.30
2022-09-23T18:11:50.139Z,80.40
2022-09-23T18:14:37.911Z,62.80
2022-09-23T18:17:25.290Z,71.90
2022-09-23T18:20:16.129Z,83.10
2022-09-23T18:22:57.036Z,79.00
2022-09-23T18:25:41.864Z,80.40
2022-09-23T18:28:12.931Z,79.30
2022-09-23T18:31:20.796Z,78.90
2022-09-23T18:34:12.093Z,76.90
2022-09-23T18:37:06.345Z,115.20
2022-09-23T18:40:17.957Z,132.10
2022-09-23T18:43:48.867Z,115.30
2022-09-23T18:46:38.826Z,116.40
2022-09-23T18:49:51.985Z,132.40
2022-09-23T18:52:56.126Z,122.40
2022-09-23T18:55:53.790Z,130.80
2022-09-23T18:58:43.766Z,133.10
2022-09-23T19:01:25.075Z,133.90
2022-09-23T19:04:19.585Z,121.50
2022-09-23T19:06:51.355Z,125.20
2022-09-23T19:09:30.707Z,122.50
2022-09-23T19:12:27.977Z,120.90
2022-09-23T19:15:12.062Z,119.50
2022-09-23T19:17:50.053Z,114.60
2022-09-23T19:20:25.154Z,114.10
2022-09-23T19:23:42.991Z,114.60
2022-09-23T19:26:34.866Z,114.90
2022-09-23T19:29:19.951Z,114.00
2022-09-23T19:31:56.381Z,114.00
2022-09-23T19:34:39.457Z,90.70
2022-09-23T19:37:34.916Z,85.60
2022-09-23T19:40:10.031Z,77.10
2022-09-23T19:42:44.109Z,78.30
2022-09-23T19:45:23.275Z,85.50
2022-09-23T19:48:00.894Z,87.10
2022-09-23T19:50:34.922Z,63.10
2022-09-23T19:53:10.034Z,73.70
2022-09-23T19:55:55.717Z,70.60
2022-09-23T19:58:38.405Z,70.20
2022-09-23T20:01:09.571Z,64.80
2022-09-23T20:07:06.539Z,69.60
2022-09-23T20:09:48.036Z,76.00
2022-09-23T20:12:24.423Z,57.80
2022-09-23T20:14:53.853Z,54.00
2022-09-23T20:17:22.834Z,67.60
2022-09-23T20:20:28.898Z,52.60
2022-09-23T20:23:02.949Z,49.70
2022-09-23T20:26:05.021Z,52.30
2022-09-23T20:31:05.307Z,54.00
2022-09-23T20:33:40.176Z,53.10
2022-09-23T20:36:13.801Z,54.80
2022-09-23T20:38:43.576Z,52.70
2022-09-23T20:41:23.384Z,61.80
2022-09-23T20:44:16.753Z,55.30
2022-09-23T20:47:02.253Z,58.10
2022-09-23T20:49:34.561Z,60.20
2022-09-23T20:52:22.028Z,64.50
2022-09-23T20:56:40.805Z,64.90
2022-09-23T20:58:03.406Z,62.40
2022-09-23T21:00:36.025Z,67.60
2022-09-23T21:03:07.927Z,73.20
2022-09-23T21:05:48.020Z,82.00
2022-09-23T21:08:25.070Z,85.00
2022-09-23T21:11:24.504Z,82.30
2022-09-23T21:13:55.274Z,78.90
2022-09-23T21:16:27.944Z,78.80
2022-09-23T21:19:11.423Z,75.70
2022-09-23T21:25:27.302Z,84.20
2022-09-23T21:28:18.294Z,83.20
2022-09-23T21:30:53.502Z,84.70
2022-09-23T21:33:27.994Z,69.10
2022-09-23T21:36:19.606Z,76.40
2022-09-23T21:39:01.937Z,75.40
2022-09-23T21:41:39.687Z,75.30
2022-09-23T21:44:20.698Z,84.50
2022-09-23T21:47:01.015Z,77.70
2022-09-23T21:49:48.477Z,76.70
2022-09-23T21:52:38.684Z,81.70
2022-09-23T21:55:16.164Z,72.20
2022-09-23T21:57:56.431Z,82.60
2022-09-23T22:00:29.054Z,89.50
2022-09-23T22:05:00.791Z,73.90
2022-09-23T22:06:30.705Z,72.90
2022-09-23T22:09:09.171Z,63.90
2022-09-23T22:12:09.287Z,64.90
2022-09-23T22:14:46.311Z,65.80
2022-09-23T22:17:28.879Z,60.90
2022-09-23T22:20:05.757Z,58.80
2022-09-23T22:22:41.383Z,55.30
2022-09-23T22:25:26.372Z,54.40
2022-09-23T22:28:18.313Z,60.20
2022-09-23T22:31:31.226Z,63.80
2022-09-23T22:34:02.834Z,60.80
2022-09-23T22:36:48.782Z,50.00
2022-09-23T22:39:29.498Z,51.30
2022-09-23T22:42:17.660Z,49.30
2022-09-23T22:44:53.826Z,45.10
2022-09-23T22:47:36.326Z,46.40
2022-09-23T22:50:15.641Z,41.50
2022-09-23T22:52:50.143Z,38.80
2022-09-23T22:55:38.291Z,36.20
2022-09-23T22:58:32.387Z,36.90
2022-09-23T23:01:26.691Z,34.70
2022-09-23T23:03:59.489Z,32.60
2022-09-23T23:06:42.834Z,40.60
2022-09-23T23:09:21.104Z,36.40
2022-09-23T23:11:56.916Z,35.80
2022-09-23T23:14:33.714Z,39.40
2022-09-23T23:17:24.598Z,37.30
2022-09-23T23:20:10.252Z,39.80
2022-09-23T23:22:53.633Z,39.40
2022-09-23T23:25:37.359Z,42.20
2022-09-23T23:31:32.716Z,33.50
2022-09-23T23:34:05.406Z,35.00
2022-09-23T23:37:01.053Z,31.50
2022-09-23T23:39:42.506Z,33.50
2022-09-23T23:42:37.996Z,31.50
2022-09-23T23:45:29.741Z,33.30
2022-09-23T23:48:20.753Z,31.90
2022-09-23T23:51:25.479Z,32.40
2022-09-23T23:54:13.064Z,29.60
2022-09-23T23:56:54.732Z,39.40
2022-09-23T23:59:28.723Z,40.90
